createdAt,value
2018-05-27T00:01:24.657Z,95787
2018-05-27T00:03:52.731Z,95787
2018-05-27T00:06:20.780Z,95779
2018-05-27T00:08:48.849Z,95775
2018-05-27T00:11:16.905Z,95771
2018-05-27T00:13:44.972Z,95764
2018-05-27T00:16:13.032Z,95771
2018-05-27T00:18:41.100Z,95765
2018-05-27T00:21:09.152Z,95763
2018-05-27T00:23:37.232Z,95764
2018-05-27T00:26:05.288Z,95758
2018-05-27T00:28:33.360Z,95762
2018-05-27T00:31:01.427Z,95765
2018-05-27T00:33:29.488Z,95755
2018-05-27T00:35:57.540Z,95761
2018-05-27T00:38:25.612Z,95767
2018-05-27T00:40:53.664Z,95761
2018-05-27T00:43:21.735Z,95757
2018-05-27T00:45:49.785Z,95748
2018-05-27T00:48:17.866Z,95749
2018-05-27T00:50:45.937Z,95749
2018-05-27T00:53:14.009Z,95756
2018-05-27T00:55:42.074Z,95757
2018-05-27T00:58:10.144Z,95756
2018-05-27T01:00:38.200Z,95742
2018-05-27T01:03:06.271Z,95752
2018-05-27T01:05:34.324Z,95746
2018-05-27T01:08:02.392Z,95739
2018-05-27T01:10:30.457Z,95737
2018-05-27T01:12:58.511Z,95735
2018-05-27T01:15:26.568Z,95734
2018-05-27T01:17:54.649Z,95729
2018-05-27T01:20:22.706Z,95727
2018-05-27T01:22:50.760Z,95721
2018-05-27T01:25:18.822Z,95727
2018-05-27T01:27:46.884Z,95721
2018-05-27T01:30:14.948Z,95710
2018-05-27T01:32:43.009Z,95705
2018-05-27T01:35:11.081Z,95698
2018-05-27T01:37:39.141Z,95700
2018-05-27T01:40:07.214Z,95696
2018-05-27T01:42:35.276Z,95694
2018-05-27T01:45:03.360Z,95696
2018-05-27T01:47:31.421Z,95689
2018-05-27T01:49:59.493Z,95691
2018-05-27T01:52:28.506Z,95694
2018-05-27T01:54:59.222Z,95690
2018-05-27T01:57:29.162Z,95690
2018-05-27T01:59:57.228Z,95688
2018-05-27T02:02:25.289Z,95677
2018-05-27T02:04:53.365Z,95671
2018-05-27T02:07:21.424Z,95674
2018-05-27T02:09:49.493Z,95661
2018-05-27T02:12:17.560Z,95659
2018-05-27T02:14:45.633Z,95664
2018-05-27T02:17:13.698Z,95667
2018-05-27T02:19:41.769Z,95661
2018-05-27T02:22:09.829Z,95661
2018-05-27T02:24:37.893Z,95664
2018-05-27T02:27:06.286Z,95660
2018-05-27T02:29:34.402Z,95661
2018-05-27T02:32:02.480Z,95648
2018-05-27T02:34:30.549Z,95658
2018-05-27T02:36:58.624Z,95663
2018-05-27T02:39:26.689Z,95665
2018-05-27T02:41:54.740Z,95654
2018-05-27T02:44:22.809Z,95654
2018-05-27T02:46:50.868Z,95660
2018-05-27T02:49:18.928Z,95656
2018-05-27T02:51:46.989Z,95646
2018-05-27T02:54:15.055Z,95658
2018-05-27T02:56:43.112Z,95652
2018-05-27T02:59:12.290Z,95648
2018-05-27T03:01:40.417Z,95646
2018-05-27T03:04:09.892Z,95651
2018-05-27T03:06:37.962Z,95641
2018-05-27T03:09:06.028Z,95639
2018-05-27T03:11:34.101Z,95635
2018-05-27T03:14:02.171Z,95637
2018-05-27T03:16:30.252Z,95636
2018-05-27T03:18:58.329Z,95633
2018-05-27T03:21:26.384Z,95642
2018-05-27T03:23:54.460Z,95638
2018-05-27T03:26:22.518Z,95632
2018-05-27T03:28:50.590Z,95637
2018-05-27T03:31:18.644Z,95628
2018-05-27T03:33:46.708Z,95635
2018-05-27T03:36:14.778Z,95639
2018-05-27T03:38:42.831Z,95636
2018-05-27T03:41:10.889Z,95639
2018-05-27T03:43:38.960Z,95641
2018-05-27T03:46:07.033Z,95645
2018-05-27T03:48:35.101Z,95640
2018-05-27T03:51:03.168Z,95644
2018-05-27T03:53:31.216Z,95645
2018-05-27T03:55:59.288Z,95639
2018-05-27T03:58:28.473Z,95648
2018-05-27T04:00:56.550Z,95640
2018-05-27T04:03:25.437Z,95644
2018-05-27T04:06:11.184Z,95644
2018-05-27T04:08:39.241Z,95654
2018-05-27T04:11:07.304Z,95641
2018-05-27T04:13:35.365Z,95658
2018-05-27T04:16:03.429Z,95651
2018-05-27T04:18:31.492Z,95658
2018-05-27T04:20:59.557Z,95659
2018-05-27T04:23:28.409Z,95670
2018-05-27T04:25:56.479Z,95661
2018-05-27T04:28:24.566Z,95658
2018-05-27T04:30:52.611Z,95656
2018-05-27T04:33:20.661Z,95656
2018-05-27T04:35:48.724Z,95660
2018-05-27T04:38:16.798Z,95656
2018-05-27T04:40:44.860Z,95658
2018-05-27T04:43:12.918Z,95657
2018-05-27T04:45:41.202Z,95660
2018-05-27T04:48:09.268Z,95667
2018-05-27T04:50:37.339Z,95658
2018-05-27T04:53:05.388Z,95664
2018-05-27T04:55:33.463Z,95655
2018-05-27T04:58:01.556Z,95664
2018-05-27T05:00:29.628Z,95659
2018-05-27T05:02:57.684Z,95648
2018-05-27T05:05:25.748Z,95654
2018-05-27T05:07:53.808Z,95650
2018-05-27T05:10:21.868Z,95643
2018-05-27T05:12:49.941Z,95655
2018-05-27T05:15:18.000Z,95654
2018-05-27T05:17:46.372Z,95661
2018-05-27T05:20:14.493Z,95660
2018-05-27T05:22:42.548Z,95660
2018-05-27T05:25:10.621Z,95665
2018-05-27T05:27:38.721Z,95659
2018-05-27T05:30:06.734Z,95654
2018-05-27T05:32:34.805Z,95662
2018-05-27T05:35:02.863Z,95671
2018-05-27T05:37:30.964Z,95668
2018-05-27T05:39:59.019Z,95675
2018-05-27T05:42:27.086Z,95674
2018-05-27T05:44:55.140Z,95671
2018-05-27T05:47:23.217Z,95669
2018-05-27T05:49:53.653Z,95677
2018-05-27T05:52:21.709Z,95681
2018-05-27T05:54:49.771Z,95676
2018-05-27T05:57:17.832Z,95684
2018-05-27T05:59:45.898Z,95682
2018-05-27T06:02:13.960Z,95679
2018-05-27T06:04:42.022Z,95697
2018-05-27T06:07:10.092Z,95694
2018-05-27T06:09:38.144Z,95699
2018-05-27T06:12:06.205Z,95700
2018-05-27T06:14:34.256Z,95703
2018-05-27T06:17:02.332Z,95695
2018-05-27T06:19:30.393Z,95695
2018-05-27T06:21:58.915Z,95701
2018-05-27T06:24:26.988Z,95701
2018-05-27T06:26:55.062Z,95700
2018-05-27T06:29:23.121Z,95702
2018-05-27T06:31:51.185Z,95697
2018-05-27T06:34:19.242Z,95691
2018-05-27T06:36:47.305Z,95704
2018-05-27T06:39:15.356Z,95702
2018-05-27T06:41:43.416Z,95702
2018-05-27T06:44:11.470Z,95695
2018-05-27T06:46:39.544Z,95705
2018-05-27T06:49:07.602Z,95703
2018-05-27T06:51:35.664Z,95697
2018-05-27T06:54:03.773Z,95697
2018-05-27T06:56:31.833Z,95703
2018-05-27T06:58:59.890Z,95705
2018-05-27T07:01:28.541Z,95699
2018-05-27T07:03:57.132Z,95701
2018-05-27T07:06:25.194Z,95706
2018-05-27T07:11:54.709Z,95707
2018-05-27T07:14:22.790Z,95702
2018-05-27T07:16:50.861Z,95697
2018-05-27T07:19:18.909Z,95695
2018-05-27T07:21:46.988Z,95697
2018-05-27T07:24:15.050Z,95697
2018-05-27T07:26:43.113Z,95692
2018-05-27T07:29:11.168Z,95688
2018-05-27T07:31:39.234Z,95690
2018-05-27T07:34:07.291Z,95686
2018-05-27T07:36:35.348Z,95685
2018-05-27T07:39:03.403Z,95675
2018-05-27T07:41:31.468Z,95688
2018-05-27T07:43:59.523Z,95688
2018-05-27T07:46:28.502Z,95688
2018-05-27T07:48:56.545Z,95699
2018-05-27T07:51:25.472Z,95696
2018-05-27T07:53:53.525Z,95700
2018-05-27T07:56:21.597Z,95699
2018-05-27T07:58:49.656Z,95699
2018-05-27T08:01:17.730Z,95696
2018-05-27T08:03:45.785Z,95704
2018-05-27T08:06:13.832Z,95699
2018-05-27T08:08:42.110Z,95702
2018-05-27T08:11:10.162Z,95717
2018-05-27T08:13:38.245Z,95705
2018-05-27T08:16:06.304Z,95719
2018-05-27T08:18:34.369Z,95703
2018-05-27T08:21:02.425Z,95700
2018-05-27T08:23:30.504Z,95709
2018-05-27T08:25:59.000Z,95701
2018-05-27T08:28:27.048Z,95709
2018-05-27T08:30:55.105Z,95696
2018-05-27T08:33:23.171Z,95707
2018-05-27T08:35:51.224Z,95710
2018-05-27T08:38:19.312Z,95705
2018-05-27T08:40:47.365Z,95715
2018-05-27T08:43:15.433Z,95718
2018-05-27T08:45:43.489Z,95720
2018-05-27T08:48:11.571Z,95715
2018-05-27T08:50:39.641Z,95720
2018-05-27T08:53:07.716Z,95716
2018-05-27T08:55:35.773Z,95715
2018-05-27T08:58:03.869Z,95711
2018-05-27T09:00:31.929Z,95704
2018-05-27T09:02:59.988Z,95714
2018-05-27T09:05:28.569Z,95709
2018-05-27T09:07:56.640Z,95710
2018-05-27T09:10:24.688Z,95707
2018-05-27T09:12:52.752Z,95703
2018-05-27T09:15:20.878Z,95708
2018-05-27T09:17:48.937Z,95716
2018-05-27T09:20:16.993Z,95703
2018-05-27T09:22:45.062Z,95703
2018-05-27T09:25:13.113Z,95704
2018-05-27T09:27:41.192Z,95695
2018-05-27T09:30:09.328Z,95695
2018-05-27T09:32:37.407Z,95697
2018-05-27T09:35:05.465Z,95698
2018-05-27T09:37:33.532Z,95696
2018-05-27T09:40:01.583Z,95692
2018-05-27T09:42:29.649Z,95695
2018-05-27T09:44:57.713Z,95693
2018-05-27T09:47:25.784Z,95690
2018-05-27T09:49:53.848Z,95692
2018-05-27T09:52:21.924Z,95685
2018-05-27T09:54:50.041Z,95692
2018-05-27T09:57:18.169Z,95689
2018-05-27T09:59:46.212Z,95687
2018-05-27T10:02:14.297Z,95688
2018-05-27T10:04:42.365Z,95686
2018-05-27T10:07:10.436Z,95681
2018-05-27T10:09:38.488Z,95681
2018-05-27T10:12:06.549Z,95685
2018-05-27T10:14:34.636Z,95684
2018-05-27T10:17:02.700Z,95681
2018-05-27T10:19:30.751Z,95674
2018-05-27T10:21:58.815Z,95668
2018-05-27T10:24:26.882Z,95676
2018-05-27T10:26:54.943Z,95669
2018-05-27T10:29:23.012Z,95670
2018-05-27T10:31:51.068Z,95668
2018-05-27T10:34:19.137Z,95671
2018-05-27T10:36:47.580Z,95670
2018-05-27T10:39:15.695Z,95673
2018-05-27T10:41:43.712Z,95669
2018-05-27T10:44:11.781Z,95662
2018-05-27T10:46:50.444Z,95666
2018-05-27T10:49:21.797Z,95679
2018-05-27T10:51:50.643Z,95674
2018-05-27T10:54:22.672Z,95666
2018-05-27T10:56:50.880Z,95666
2018-05-27T10:59:18.932Z,95672
2018-05-27T11:01:46.992Z,95665
2018-05-27T11:04:15.056Z,95660
2018-05-27T11:06:43.108Z,95653
2018-05-27T11:09:11.213Z,95654
2018-05-27T11:11:39.270Z,95658
2018-05-27T11:14:07.341Z,95646
2018-05-27T11:16:35.402Z,95652
2018-05-27T11:19:04.150Z,95648
2018-05-27T11:21:32.212Z,95651
2018-05-27T11:24:00.269Z,95650
2018-05-27T11:26:28.493Z,95648
2018-05-27T11:28:56.552Z,95647
2018-05-27T11:31:24.608Z,95637
2018-05-27T11:33:52.664Z,95641
2018-05-27T11:36:20.733Z,95627
2018-05-27T11:38:48.811Z,95629
2018-05-27T11:41:16.869Z,95627
2018-05-27T11:43:44.920Z,95629
2018-05-27T11:46:12.972Z,95622
2018-05-27T11:48:41.077Z,95617
2018-05-27T11:51:09.080Z,95607
2018-05-27T11:53:37.131Z,95602
2018-05-27T11:56:05.183Z,95603
2018-05-27T11:58:33.236Z,95605
2018-05-27T12:01:01.304Z,95596
2018-05-27T12:03:29.353Z,95598
2018-05-27T12:05:57.409Z,95592
2018-05-27T12:08:25.459Z,95594
2018-05-27T12:10:54.512Z,95596
2018-05-27T12:13:22.560Z,95590
2018-05-27T12:15:51.596Z,95595
2018-05-27T12:18:19.644Z,95580
2018-05-27T12:20:47.709Z,95580
2018-05-27T12:23:15.922Z,95575
2018-05-27T12:25:43.980Z,95576
2018-05-27T12:28:12.031Z,95570
2018-05-27T12:30:40.132Z,95570
2018-05-27T12:33:08.176Z,95565
2018-05-27T12:35:36.240Z,95564
2018-05-27T12:38:04.293Z,95568
2018-05-27T12:40:32.356Z,95571
2018-05-27T12:43:00.590Z,95570
2018-05-27T12:45:28.652Z,95576
2018-05-27T12:47:56.715Z,95568
2018-05-27T12:50:24.768Z,95570
2018-05-27T12:52:54.380Z,95567
2018-05-27T12:55:22.438Z,95578
2018-05-27T12:57:50.501Z,95583
2018-05-27T13:00:18.556Z,95576
2018-05-27T13:02:46.744Z,95576
2018-05-27T13:05:14.813Z,95580
2018-05-27T13:07:42.868Z,95576
2018-05-27T13:10:10.917Z,95588
2018-05-27T13:12:38.973Z,95577
2018-05-27T13:15:07.020Z,95584
2018-05-27T13:17:35.082Z,95580
2018-05-27T13:20:03.132Z,95573
2018-05-27T13:22:31.184Z,95578
2018-05-27T13:24:59.227Z,95577
2018-05-27T13:27:27.280Z,95577
2018-05-27T13:29:55.383Z,95564
2018-05-27T13:32:23.396Z,95571
2018-05-27T13:34:51.435Z,95564
2018-05-27T13:37:19.499Z,95566
2018-05-27T13:39:47.552Z,95558
2018-05-27T13:42:15.612Z,95555
2018-05-27T13:44:43.656Z,95555
2018-05-27T13:47:11.711Z,95553
2018-05-27T13:49:39.762Z,95555
2018-05-27T13:52:07.836Z,95553
2018-05-27T13:54:35.879Z,95555
2018-05-27T13:57:03.943Z,95554
2018-05-27T13:59:31.988Z,95550
2018-05-27T14:02:00.049Z,95553
2018-05-27T14:04:28.384Z,95548
2018-05-27T14:06:56.445Z,95553
2018-05-27T14:09:24.492Z,95551
2018-05-27T14:11:52.544Z,95553
2018-05-27T14:14:20.626Z,95551
2018-05-27T14:16:48.673Z,95551
2018-05-27T14:19:16.719Z,95543
2018-05-27T14:21:44.767Z,95546
2018-05-27T14:24:12.823Z,95548
2018-05-27T14:26:40.881Z,95549
2018-05-27T14:29:08.920Z,95554
2018-05-27T14:31:37.001Z,95554
2018-05-27T14:34:05.050Z,95559
2018-05-27T14:36:33.109Z,95559
2018-05-27T14:39:01.157Z,95549
2018-05-27T14:41:29.220Z,95552
2018-05-27T14:43:57.269Z,95553
2018-05-27T14:46:25.320Z,95558
2018-05-27T14:48:53.383Z,95555
2018-05-27T14:51:21.420Z,95562
2018-05-27T14:53:49.476Z,95549
2018-05-27T14:56:17.529Z,95554
2018-05-27T14:58:45.580Z,95547
2018-05-27T15:01:13.633Z,95548
2018-05-27T15:03:41.697Z,95542
2018-05-27T15:06:09.752Z,95548
2018-05-27T15:08:37.808Z,95534
2018-05-27T15:11:05.860Z,95537
2018-05-27T15:13:33.917Z,95533
2018-05-27T15:16:01.969Z,95534
2018-05-27T15:18:30.038Z,95536
2018-05-27T15:20:58.072Z,95530
2018-05-27T15:23:26.132Z,95528
2018-05-27T15:25:54.176Z,95520
2018-05-27T15:28:22.232Z,95514
2018-05-27T15:30:50.278Z,95502
2018-05-27T15:33:18.340Z,95502
2018-05-27T15:35:46.389Z,95499
2018-05-27T15:38:14.447Z,95497
2018-05-27T15:40:42.492Z,95508
2018-05-27T15:43:10.563Z,95502
2018-05-27T15:45:38.617Z,95497
2018-05-27T15:48:06.685Z,95491
2018-05-27T15:50:34.728Z,95491
2018-05-27T15:53:02.784Z,95490
2018-05-27T15:55:30.832Z,95488
2018-05-27T15:57:58.892Z,95487
2018-05-27T16:00:26.941Z,95488
2018-05-27T16:02:54.995Z,95492
2018-05-27T16:05:23.071Z,95495
2018-05-27T16:07:51.104Z,95493
2018-05-27T16:10:19.151Z,95496
2018-05-27T16:12:47.200Z,95501
2018-05-27T16:15:15.248Z,95506
2018-05-27T16:17:43.309Z,95506
2018-05-27T16:20:12.285Z,95499
2018-05-27T16:22:40.361Z,95494
2018-05-27T16:25:08.396Z,95496
2018-05-27T16:27:36.454Z,95494
2018-05-27T16:30:04.504Z,95493
2018-05-27T16:32:32.561Z,95489
2018-05-27T16:35:00.640Z,95487
2018-05-27T16:37:28.716Z,95494
2018-05-27T16:39:56.766Z,95495
2018-05-27T16:42:24.833Z,95502
2018-05-27T16:44:52.892Z,95489
2018-05-27T16:47:20.944Z,95495
2018-05-27T16:49:49.524Z,95494
2018-05-27T16:52:17.576Z,95485
2018-05-27T16:54:45.625Z,95483
2018-05-27T16:57:13.684Z,95490
2018-05-27T16:59:41.724Z,95488
2018-05-27T17:02:09.792Z,95496
2018-05-27T17:04:37.844Z,95492
2018-05-27T17:07:05.892Z,95490
2018-05-27T17:09:33.999Z,95483
2018-05-27T17:12:02.054Z,95482
2018-05-27T17:14:30.124Z,95478
2018-05-27T17:16:58.177Z,95482
2018-05-27T17:19:26.236Z,95483
2018-05-27T17:21:54.283Z,95479
2018-05-27T17:24:22.344Z,95487
2018-05-27T17:26:50.384Z,95480
2018-05-27T17:29:18.448Z,95485
2018-05-27T17:31:46.508Z,95480
2018-05-27T17:34:14.565Z,95478
2018-05-27T17:36:42.644Z,95475
2018-05-27T17:39:10.713Z,95463
2018-05-27T17:41:38.777Z,95464
2018-05-27T17:44:06.875Z,95461
2018-05-27T17:46:34.926Z,95458
2018-05-27T17:49:02.979Z,95462
2018-05-27T17:51:31.072Z,95454
2018-05-27T17:54:00.156Z,95451
2018-05-27T17:56:28.192Z,95462
2018-05-27T17:58:56.257Z,95453
2018-05-27T18:01:24.311Z,95458
2018-05-27T18:03:52.369Z,95463
2018-05-27T18:06:20.412Z,95471
2018-05-27T18:08:48.473Z,95478
2018-05-27T18:11:16.520Z,95481
2018-05-27T18:13:44.577Z,95479
2018-05-27T18:16:12.632Z,95478
2018-05-27T18:18:40.684Z,95482
2018-05-27T18:21:08.738Z,95477
2018-05-27T18:23:36.797Z,95487
2018-05-27T18:26:05.449Z,95489
2018-05-27T18:28:33.524Z,95485
2018-05-27T18:31:01.586Z,95487
2018-05-27T18:33:29.641Z,95495
2018-05-27T18:35:57.689Z,95498
2018-05-27T18:38:25.740Z,95497
2018-05-27T18:40:53.792Z,95496
2018-05-27T18:43:21.869Z,95486
2018-05-27T18:45:49.936Z,95494
2018-05-27T18:48:17.990Z,95494
2018-05-27T18:50:46.040Z,95497
2018-05-27T18:53:14.104Z,95500
2018-05-27T18:55:42.153Z,95503
2018-05-27T18:58:10.206Z,95507
2018-05-27T19:00:38.252Z,95518
2018-05-27T19:03:06.376Z,95518
2018-05-27T19:05:34.429Z,95519
2018-05-27T19:08:02.497Z,95520
2018-05-27T19:10:30.560Z,95532
2018-05-27T19:12:58.652Z,95528
2018-05-27T19:15:26.692Z,95532
2018-05-27T19:17:54.747Z,95510
2018-05-27T19:20:22.806Z,95523
2018-05-27T19:22:50.988Z,95512
2018-05-27T19:25:19.052Z,95512
2018-05-27T19:27:47.095Z,95510
2018-05-27T19:30:15.156Z,95510
2018-05-27T19:32:43.204Z,95510
2018-05-27T19:35:11.264Z,95500
2018-05-27T19:37:39.315Z,95502
2018-05-27T19:43:07.428Z,95500
2018-05-27T19:45:37.946Z,95504
2018-05-27T19:48:06.100Z,95501
2018-05-27T19:50:34.142Z,95493
2018-05-27T19:53:02.201Z,95493
2018-05-27T19:55:30.244Z,95493
2018-05-27T19:57:58.304Z,95501
2018-05-27T20:00:26.351Z,95498
2018-05-27T20:02:54.433Z,95501
2018-05-27T20:05:22.504Z,95499
2018-05-27T20:07:50.559Z,95497
2018-05-27T20:10:18.628Z,95500
2018-05-27T20:12:46.676Z,95503
2018-05-27T20:15:14.736Z,95499
2018-05-27T20:17:42.784Z,95509
2018-05-27T20:20:12.228Z,95500
2018-05-27T20:22:41.400Z,95497
2018-05-27T20:25:09.465Z,95503
2018-05-27T20:27:40.987Z,95508
2018-05-27T20:30:09.128Z,95507
2018-05-27T20:32:37.180Z,95514
2018-05-27T20:35:05.240Z,95515
2018-05-27T20:37:33.292Z,95514
2018-05-27T20:40:01.352Z,95504
2018-05-27T20:42:29.403Z,95507
2018-05-27T20:44:57.485Z,95496
2018-05-27T20:47:25.545Z,95489
2018-05-27T20:49:53.626Z,95496
2018-05-27T20:52:21.656Z,95482
2018-05-27T20:54:49.725Z,95484
2018-05-27T20:57:17.781Z,95487
2018-05-27T20:59:45.844Z,95490
2018-05-27T21:02:13.908Z,95495
2018-05-27T21:04:42.077Z,95488
2018-05-27T21:07:10.132Z,95487
2018-05-27T21:09:38.221Z,95490
2018-05-27T21:12:06.274Z,95486
2018-05-27T21:14:34.444Z,95491
2018-05-27T21:17:02.498Z,95501
2018-05-27T21:19:30.569Z,95501
2018-05-27T21:21:58.628Z,95503
2018-05-27T21:24:26.688Z,95510
2018-05-27T21:26:54.753Z,95510
2018-05-27T21:29:22.816Z,95508
2018-05-27T21:31:50.870Z,95506
2018-05-27T21:34:18.936Z,95509
2018-05-27T21:36:46.993Z,95513
2018-05-27T21:39:15.060Z,95514
2018-05-27T21:41:43.121Z,95511
2018-05-27T21:44:11.201Z,95504
2018-05-27T21:46:39.264Z,95510
2018-05-27T21:49:07.320Z,95506
2018-05-27T21:51:35.381Z,95504
2018-05-27T21:54:03.478Z,95506
2018-05-27T21:56:31.528Z,95507
2018-05-27T21:58:59.593Z,95517
2018-05-27T22:01:28.480Z,95507
2018-05-27T22:03:56.552Z,95513
2018-05-27T22:06:24.608Z,95523
2018-05-27T22:08:52.676Z,95519
2018-05-27T22:11:20.741Z,95530
2018-05-27T22:13:48.804Z,95514
2018-05-27T22:16:16.875Z,95523
2018-05-27T22:18:44.924Z,95531
2018-05-27T22:21:13.240Z,95522
2018-05-27T22:23:41.480Z,95523
2018-05-27T22:26:09.543Z,95520
2018-05-27T22:28:37.593Z,95520
2018-05-27T22:31:05.697Z,95525
2018-05-27T22:33:33.744Z,95524
2018-05-27T22:36:01.808Z,95523
2018-05-27T22:38:29.869Z,95512
2018-05-27T22:40:57.946Z,95515
2018-05-27T22:43:26.004Z,95519
2018-05-27T22:45:54.068Z,95519
2018-05-27T22:48:22.129Z,95517
2018-05-27T22:50:50.187Z,95507
2018-05-27T22:53:18.252Z,95505
2018-05-27T22:55:46.311Z,95510
2018-05-27T22:58:14.372Z,95500
2018-05-27T23:00:44.346Z,95490
2018-05-27T23:03:12.406Z,95500
2018-05-27T23:05:40.481Z,95483
2018-05-27T23:08:08.531Z,95493
2018-05-27T23:10:36.591Z,95487
2018-05-27T23:13:04.660Z,95491
2018-05-27T23:15:32.725Z,95492
2018-05-27T23:18:00.792Z,95490
2018-05-27T23:20:28.860Z,95494
2018-05-27T23:22:56.917Z,95483
2018-05-27T23:25:24.990Z,95491
2018-05-27T23:27:53.045Z,95484
2018-05-27T23:30:21.112Z,95483
2018-05-27T23:32:49.172Z,95490
2018-05-27T23:35:17.261Z,95485
2018-05-27T23:37:45.320Z,95484
2018-05-27T23:40:14.520Z,95483
2018-05-27T23:42:42.581Z,95478
2018-05-27T23:45:10.677Z,95475
2018-05-27T23:47:38.720Z,95472
2018-05-27T23:50:06.781Z,95471
2018-05-27T23:52:34.848Z,95459
2018-05-27T23:55:02.918Z,95452
2018-05-27T23:57:30.977Z,95446
2018-05-27T23:59:59.061Z,95450
